sensor_id;sensor_type;location;lat;lon;timestamp;P1;durP1;ratioP1;P2;durP2;ratioP2
19747;SDS011;10032;51.386;12.516;2022-08-21T00:02:01;16.33;;;11.10;;
19747;SDS011;10032;51.386;12.516;2022-08-21T00:04:27;17.17;;;12.55;;
19747;SDS011;10032;51.386;12.516;2022-08-21T00:06:53;18.15;;;11.88;;
19747;SDS011;10032;51.386;12.516;2022-08-21T00:09:19;18.67;;;11.90;;
19747;SDS011;10032;51.386;12.516;2022-08-21T00:11:44;17.77;;;11.52;;
19747;SDS011;10032;51.386;12.516;2022-08-21T00:14:10;20.42;;;11.80;;
19747;SDS011;10032;51.386;12.516;2022-08-21T00:16:39;17.15;;;12.20;;
19747;SDS011;10032;51.386;12.516;2022-08-21T00:19:05;16.38;;;11.65;;
19747;SDS011;10032;51.386;12.516;2022-08-21T00:21:31;18.15;;;11.15;;
19747;SDS011;10032;51.386;12.516;2022-08-21T00:23:57;17.83;;;11.95;;
19747;SDS011;10032;51.386;12.516;2022-08-21T00:26:22;18.60;;;10.52;;
19747;SDS011;10032;51.386;12.516;2022-08-21T00:28:48;16.45;;;11.02;;
19747;SDS011;10032;51.386;12.516;2022-08-21T00:31:14;16.17;;;10.80;;
19747;SDS011;10032;51.386;12.516;2022-08-21T00:33:40;16.55;;;11.32;;
19747;SDS011;10032;51.386;12.516;2022-08-21T00:36:06;16.75;;;11.05;;
19747;SDS011;10032;51.386;12.516;2022-08-21T00:38:32;15.82;;;10.95;;
19747;SDS011;10032;51.386;12.516;2022-08-21T00:41:00;16.15;;;11.50;;
19747;SDS011;10032;51.386;12.516;2022-08-21T00:43:31;15.55;;;10.63;;
19747;SDS011;10032;51.386;12.516;2022-08-21T00:45:58;19.52;;;11.60;;
19747;SDS011;10032;51.386;12.516;2022-08-21T00:48:25;17.05;;;11.70;;
19747;SDS011;10032;51.386;12.516;2022-08-21T00:51:04;16.45;;;11.07;;
19747;SDS011;10032;51.386;12.516;2022-08-21T00:53:47;16.40;;;11.43;;
19747;SDS011;10032;51.386;12.516;2022-08-21T00:56:20;16.45;;;11.10;;
19747;SDS011;10032;51.386;12.516;2022-08-21T00:58:47;15.82;;;10.45;;
19747;SDS011;10032;51.386;12.516;2022-08-21T01:01:14;15.73;;;10.50;;
19747;SDS011;10032;51.386;12.516;2022-08-21T01:03:40;15.23;;;10.27;;
19747;SDS011;10032;51.386;12.516;2022-08-21T01:06:06;15.48;;;10.68;;
19747;SDS011;10032;51.386;12.516;2022-08-21T01:08:32;15.13;;;10.18;;
19747;SDS011;10032;51.386;12.516;2022-08-21T01:10:59;13.18;;;8.90;;
19747;SDS011;10032;51.386;12.516;2022-08-21T01:13:26;14.55;;;9.20;;
19747;SDS011;10032;51.386;12.516;2022-08-21T01:15:55;13.90;;;9.77;;
19747;SDS011;10032;51.386;12.516;2022-08-21T01:18:24;16.02;;;9.23;;
19747;SDS011;10032;51.386;12.516;2022-08-21T01:21:10;12.52;;;8.90;;
19747;SDS011;10032;51.386;12.516;2022-08-21T01:23:43;12.30;;;9.25;;
19747;SDS011;10032;51.386;12.516;2022-08-21T01:26:10;12.27;;;9.25;;
19747;SDS011;10032;51.386;12.516;2022-08-21T01:28:38;11.52;;;8.75;;
19747;SDS011;10032;51.386;12.516;2022-08-21T01:31:08;12.52;;;8.95;;
19747;SDS011;10032;51.386;12.516;2022-08-21T01:33:37;12.25;;;9.00;;
19747;SDS011;10032;51.386;12.516;2022-08-21T01:36:02;11.38;;;8.90;;
19747;SDS011;10032;51.386;12.516;2022-08-21T01:38:28;11.43;;;7.80;;
19747;SDS011;10032;51.386;12.516;2022-08-21T01:40:54;12.85;;;8.73;;
19747;SDS011;10032;51.386;12.516;2022-08-21T01:43:19;10.43;;;8.15;;
19747;SDS011;10032;51.386;12.516;2022-08-21T01:45:44;12.70;;;8.25;;
19747;SDS011;10032;51.386;12.516;2022-08-21T01:48:10;11.00;;;7.78;;
19747;SDS011;10032;51.386;12.516;2022-08-21T01:50:35;12.32;;;8.40;;
19747;SDS011;10032;51.386;12.516;2022-08-21T01:53:01;11.27;;;8.27;;
19747;SDS011;10032;51.386;12.516;2022-08-21T01:55:27;13.07;;;8.18;;
19747;SDS011;10032;51.386;12.516;2022-08-21T01:57:52;11.40;;;8.63;;
19747;SDS011;10032;51.386;12.516;2022-08-21T02:00:19;11.52;;;8.20;;
19747;SDS011;10032;51.386;12.516;2022-08-21T02:02:48;10.27;;;7.60;;
19747;SDS011;10032;51.386;12.516;2022-08-21T02:05:14;11.85;;;7.43;;
19747;SDS011;10032;51.386;12.516;2022-08-21T02:07:51;11.95;;;8.73;;
19747;SDS011;10032;51.386;12.516;2022-08-21T02:10:22;10.85;;;7.38;;
19747;SDS011;10032;51.386;12.516;2022-08-21T02:12:51;12.13;;;8.32;;
19747;SDS011;10032;51.386;12.516;2022-08-21T02:15:17;12.82;;;8.15;;
19747;SDS011;10032;51.386;12.516;2022-08-21T02:20:10;11.55;;;7.93;;
19747;SDS011;10032;51.386;12.516;2022-08-21T02:22:39;10.68;;;7.80;;
19747;SDS011;10032;51.386;12.516;2022-08-21T02:25:05;9.05;;;6.88;;
19747;SDS011;10032;51.386;12.516;2022-08-21T02:27:36;8.98;;;6.93;;
19747;SDS011;10032;51.386;12.516;2022-08-21T02:30:07;9.05;;;6.95;;
19747;SDS011;10032;51.386;12.516;2022-08-21T02:32:35;7.25;;;5.93;;
19747;SDS011;10032;51.386;12.516;2022-08-21T02:35:01;11.40;;;6.70;;
19747;SDS011;10032;51.386;12.516;2022-08-21T02:37:26;8.48;;;6.15;;
19747;SDS011;10032;51.386;12.516;2022-08-21T02:39:52;8.98;;;6.40;;
19747;SDS011;10032;51.386;12.516;2022-08-21T02:42:17;10.23;;;7.05;;
19747;SDS011;10032;51.386;12.516;2022-08-21T02:44:43;7.43;;;6.13;;
19747;SDS011;10032;51.386;12.516;2022-08-21T02:47:08;15.38;;;6.60;;
19747;SDS011;10032;51.386;12.516;2022-08-21T02:49:34;10.27;;;6.43;;
19747;SDS011;10032;51.386;12.516;2022-08-21T02:51:59;8.07;;;5.72;;
19747;SDS011;10032;51.386;12.516;2022-08-21T02:54:25;8.30;;;5.50;;
19747;SDS011;10032;51.386;12.516;2022-08-21T02:56:50;10.25;;;5.97;;
19747;SDS011;10032;51.386;12.516;2022-08-21T02:59:16;7.78;;;5.68;;
19747;SDS011;10032;51.386;12.516;2022-08-21T03:01:41;7.72;;;5.80;;
19747;SDS011;10032;51.386;12.516;2022-08-21T03:04:07;6.20;;;5.20;;
19747;SDS011;10032;51.386;12.516;2022-08-21T03:06:32;6.22;;;5.40;;
19747;SDS011;10032;51.386;12.516;2022-08-21T03:08:58;7.78;;;5.75;;
19747;SDS011;10032;51.386;12.516;2022-08-21T03:11:24;8.88;;;5.13;;
19747;SDS011;10032;51.386;12.516;2022-08-21T03:13:51;6.25;;;5.10;;
19747;SDS011;10032;51.386;12.516;2022-08-21T03:16:17;7.13;;;5.20;;
19747;SDS011;10032;51.386;12.516;2022-08-21T03:18:44;7.20;;;4.45;;
19747;SDS011;10032;51.386;12.516;2022-08-21T03:21:09;5.95;;;4.50;;
19747;SDS011;10032;51.386;12.516;2022-08-21T03:23:35;5.43;;;4.78;;
19747;SDS011;10032;51.386;12.516;2022-08-21T03:26:01;7.18;;;5.00;;
19747;SDS011;10032;51.386;12.516;2022-08-21T03:28:27;5.78;;;4.60;;
19747;SDS011;10032;51.386;12.516;2022-08-21T03:30:53;6.07;;;4.63;;
19747;SDS011;10032;51.386;12.516;2022-08-21T03:33:19;5.28;;;4.35;;
19747;SDS011;10032;51.386;12.516;2022-08-21T03:35:45;6.75;;;5.00;;
19747;SDS011;10032;51.386;12.516;2022-08-21T03:38:17;6.68;;;5.30;;
19747;SDS011;10032;51.386;12.516;2022-08-21T03:40:43;5.93;;;4.80;;
19747;SDS011;10032;51.386;12.516;2022-08-21T03:43:08;6.10;;;4.97;;
19747;SDS011;10032;51.386;12.516;2022-08-21T03:45:34;5.65;;;4.68;;
19747;SDS011;10032;51.386;12.516;2022-08-21T03:48:01;7.45;;;5.50;;
19747;SDS011;10032;51.386;12.516;2022-08-21T03:50:29;7.82;;;4.72;;
19747;SDS011;10032;51.386;12.516;2022-08-21T03:52:56;5.28;;;4.07;;
19747;SDS011;10032;51.386;12.516;2022-08-21T03:55:23;5.82;;;4.40;;
19747;SDS011;10032;51.386;12.516;2022-08-21T03:57:49;6.20;;;4.97;;
19747;SDS011;10032;51.386;12.516;2022-08-21T04:00:14;6.07;;;4.63;;
19747;SDS011;10032;51.386;12.516;2022-08-21T04:02:41;6.95;;;4.68;;
19747;SDS011;10032;51.386;12.516;2022-08-21T04:05:09;7.30;;;4.30;;
19747;SDS011;10032;51.386;12.516;2022-08-21T04:07:35;5.03;;;4.10;;
19747;SDS011;10032;51.386;12.516;2022-08-21T04:10:01;10.20;;;4.20;;
19747;SDS011;10032;51.386;12.516;2022-08-21T04:12:27;6.10;;;4.22;;
19747;SDS011;10032;51.386;12.516;2022-08-21T04:14:52;5.90;;;4.85;;
19747;SDS011;10032;51.386;12.516;2022-08-21T04:17:18;6.38;;;4.07;;
19747;SDS011;10032;51.386;12.516;2022-08-21T04:19:44;4.43;;;3.92;;
19747;SDS011;10032;51.386;12.516;2022-08-21T04:22:09;4.30;;;3.70;;
19747;SDS011;10032;51.386;12.516;2022-08-21T04:24:35;5.75;;;4.38;;
19747;SDS011;10032;51.386;12.516;2022-08-21T04:27:00;5.03;;;4.47;;
19747;SDS011;10032;51.386;12.516;2022-08-21T04:29:26;4.53;;;4.13;;
19747;SDS011;10032;51.386;12.516;2022-08-21T04:31:51;6.00;;;4.38;;
19747;SDS011;10032;51.386;12.516;2022-08-21T04:34:17;6.05;;;4.20;;
19747;SDS011;10032;51.386;12.516;2022-08-21T04:36:43;5.57;;;3.90;;
19747;SDS011;10032;51.386;12.516;2022-08-21T04:39:08;4.10;;;3.70;;
19747;SDS011;10032;51.386;12.516;2022-08-21T04:41:34;5.65;;;3.88;;
19747;SDS011;10032;51.386;12.516;2022-08-21T04:44:00;6.03;;;4.00;;
19747;SDS011;10032;51.386;12.516;2022-08-21T04:46:26;5.32;;;4.05;;
19747;SDS011;10032;51.386;12.516;2022-08-21T04:48:52;4.82;;;3.53;;
19747;SDS011;10032;51.386;12.516;2022-08-21T04:51:19;5.70;;;4.40;;
19747;SDS011;10032;51.386;12.516;2022-08-21T04:53:52;5.10;;;3.92;;
19747;SDS011;10032;51.386;12.516;2022-08-21T04:56:28;4.00;;;3.60;;
19747;SDS011;10032;51.386;12.516;2022-08-21T04:58:57;6.40;;;3.45;;
19747;SDS011;10032;51.386;12.516;2022-08-21T05:01:28;5.60;;;4.07;;
19747;SDS011;10032;51.386;12.516;2022-08-21T05:03:56;5.57;;;4.38;;
19747;SDS011;10032;51.386;12.516;2022-08-21T05:06:24;4.40;;;3.25;;
19747;SDS011;10032;51.386;12.516;2022-08-21T05:08:51;4.70;;;3.95;;
19747;SDS011;10032;51.386;12.516;2022-08-21T05:11:19;6.68;;;3.60;;
19747;SDS011;10032;51.386;12.516;2022-08-21T05:13:47;4.82;;;3.72;;
19747;SDS011;10032;51.386;12.516;2022-08-21T05:16:13;5.70;;;3.50;;
19747;SDS011;10032;51.386;12.516;2022-08-21T05:18:40;5.63;;;3.90;;
19747;SDS011;10032;51.386;12.516;2022-08-21T05:21:06;5.28;;;3.55;;
19747;SDS011;10032;51.386;12.516;2022-08-21T05:23:32;3.97;;;3.67;;
19747;SDS011;10032;51.386;12.516;2022-08-21T05:25:57;3.92;;;3.53;;
19747;SDS011;10032;51.386;12.516;2022-08-21T05:28:23;4.13;;;3.47;;
19747;SDS011;10032;51.386;12.516;2022-08-21T05:30:49;5.43;;;3.75;;
19747;SDS011;10032;51.386;12.516;2022-08-21T05:33:14;6.88;;;3.63;;
19747;SDS011;10032;51.386;12.516;2022-08-21T05:35:40;5.90;;;3.65;;
19747;SDS011;10032;51.386;12.516;2022-08-21T05:38:06;7.03;;;3.47;;
19747;SDS011;10032;51.386;12.516;2022-08-21T05:40:32;3.88;;;3.25;;
19747;SDS011;10032;51.386;12.516;2022-08-21T05:42:58;5.25;;;3.80;;
19747;SDS011;10032;51.386;12.516;2022-08-21T05:45:26;4.38;;;3.63;;
19747;SDS011;10032;51.386;12.516;2022-08-21T05:47:53;7.35;;;3.75;;
19747;SDS011;10032;51.386;12.516;2022-08-21T05:50:19;4.25;;;3.50;;
19747;SDS011;10032;51.386;12.516;2022-08-21T05:52:44;8.07;;;3.90;;
19747;SDS011;10032;51.386;12.516;2022-08-21T05:55:10;6.22;;;3.47;;
19747;SDS011;10032;51.386;12.516;2022-08-21T05:57:35;4.25;;;3.35;;
19747;SDS011;10032;51.386;12.516;2022-08-21T06:00:00;5.18;;;3.30;;
19747;SDS011;10032;51.386;12.516;2022-08-21T06:02:26;4.03;;;3.33;;
19747;SDS011;10032;51.386;12.516;2022-08-21T06:04:51;3.63;;;3.05;;
19747;SDS011;10032;51.386;12.516;2022-08-21T06:07:16;3.70;;;3.40;;
19747;SDS011;10032;51.386;12.516;2022-08-21T06:09:42;5.40;;;3.60;;
19747;SDS011;10032;51.386;12.516;2022-08-21T06:12:08;4.13;;;3.15;;
19747;SDS011;10032;51.386;12.516;2022-08-21T06:14:35;5.13;;;3.28;;
19747;SDS011;10032;51.386;12.516;2022-08-21T06:17:03;5.68;;;3.40;;
19747;SDS011;10032;51.386;12.516;2022-08-21T06:19:29;5.72;;;3.55;;
19747;SDS011;10032;51.386;12.516;2022-08-21T06:21:55;5.10;;;3.35;;
19747;SDS011;10032;51.386;12.516;2022-08-21T06:24:20;5.38;;;3.60;;
19747;SDS011;10032;51.386;12.516;2022-08-21T06:26:46;4.97;;;2.97;;
19747;SDS011;10032;51.386;12.516;2022-08-21T06:29:12;4.60;;;3.35;;
19747;SDS011;10032;51.386;12.516;2022-08-21T06:31:41;6.50;;;3.47;;
19747;SDS011;10032;51.386;12.516;2022-08-21T06:34:07;5.35;;;3.17;;
19747;SDS011;10032;51.386;12.516;2022-08-21T06:36:32;3.45;;;3.10;;
19747;SDS011;10032;51.386;12.516;2022-08-21T06:38:58;3.83;;;3.05;;
19747;SDS011;10032;51.386;12.516;2022-08-21T06:41:23;4.68;;;3.05;;
19747;SDS011;10032;51.386;12.516;2022-08-21T06:43:49;6.85;;;3.50;;
19747;SDS011;10032;51.386;12.516;2022-08-21T06:46:15;3.97;;;3.25;;
19747;SDS011;10032;51.386;12.516;2022-08-21T06:48:40;5.88;;;3.03;;
19747;SDS011;10032;51.386;12.516;2022-08-21T06:51:05;4.13;;;3.25;;
19747;SDS011;10032;51.386;12.516;2022-08-21T06:53:31;4.53;;;2.88;;
19747;SDS011;10032;51.386;12.516;2022-08-21T06:55:56;5.45;;;3.10;;
19747;SDS011;10032;51.386;12.516;2022-08-21T06:58:22;4.80;;;2.88;;
19747;SDS011;10032;51.386;12.516;2022-08-21T07:00:48;6.15;;;3.40;;
19747;SDS011;10032;51.386;12.516;2022-08-21T07:03:22;5.32;;;3.03;;
19747;SDS011;10032;51.386;12.516;2022-08-21T07:05:50;3.13;;;2.67;;
19747;SDS011;10032;51.386;12.516;2022-08-21T07:08:16;6.10;;;3.05;;
19747;SDS011;10032;51.386;12.516;2022-08-21T07:10:41;5.47;;;3.35;;
19747;SDS011;10032;51.386;12.516;2022-08-21T07:13:07;3.40;;;3.10;;
19747;SDS011;10032;51.386;12.516;2022-08-21T07:15:32;5.18;;;2.85;;
19747;SDS011;10032;51.386;12.516;2022-08-21T07:17:58;3.40;;;2.88;;
19747;SDS011;10032;51.386;12.516;2022-08-21T07:20:25;5.38;;;3.33;;
19747;SDS011;10032;51.386;12.516;2022-08-21T07:22:51;3.85;;;2.63;;
19747;SDS011;10032;51.386;12.516;2022-08-21T07:25:17;5.05;;;3.00;;
19747;SDS011;10032;51.386;12.516;2022-08-21T07:27:42;5.32;;;3.28;;
19747;SDS011;10032;51.386;12.516;2022-08-21T07:30:08;3.17;;;2.85;;
19747;SDS011;10032;51.386;12.516;2022-08-21T07:32:33;4.10;;;3.00;;
19747;SDS011;10032;51.386;12.516;2022-08-21T07:34:59;7.75;;;3.00;;
19747;SDS011;10032;51.386;12.516;2022-08-21T07:37:24;3.47;;;2.58;;
19747;SDS011;10032;51.386;12.516;2022-08-21T07:39:50;3.03;;;2.67;;
19747;SDS011;10032;51.386;12.516;2022-08-21T07:42:16;4.13;;;3.00;;
19747;SDS011;10032;51.386;12.516;2022-08-21T07:44:42;3.78;;;2.53;;
19747;SDS011;10032;51.386;12.516;2022-08-21T07:47:07;3.17;;;2.70;;
19747;SDS011;10032;51.386;12.516;2022-08-21T07:49:33;4.35;;;2.70;;
19747;SDS011;10032;51.386;12.516;2022-08-21T07:51:59;4.93;;;2.58;;
19747;SDS011;10032;51.386;12.516;2022-08-21T07:54:25;4.72;;;2.80;;
19747;SDS011;10032;51.386;12.516;2022-08-21T07:56:50;3.03;;;2.42;;
19747;SDS011;10032;51.386;12.516;2022-08-21T07:59:16;4.95;;;2.58;;
19747;SDS011;10032;51.386;12.516;2022-08-21T08:01:41;5.32;;;2.80;;
19747;SDS011;10032;51.386;12.516;2022-08-21T08:04:06;3.35;;;2.55;;
19747;SDS011;10032;51.386;12.516;2022-08-21T08:06:32;4.35;;;2.35;;
19747;SDS011;10032;51.386;12.516;2022-08-21T08:08:57;5.30;;;2.70;;
19747;SDS011;10032;51.386;12.516;2022-08-21T08:11:23;5.38;;;2.42;;
19747;SDS011;10032;51.386;12.516;2022-08-21T08:13:49;6.95;;;2.50;;
19747;SDS011;10032;51.386;12.516;2022-08-21T08:16:16;3.50;;;2.33;;
19747;SDS011;10032;51.386;12.516;2022-08-21T08:18:42;3.67;;;2.50;;
19747;SDS011;10032;51.386;12.516;2022-08-21T08:21:10;2.88;;;2.50;;
19747;SDS011;10032;51.386;12.516;2022-08-21T08:23:36;3.47;;;2.35;;
19747;SDS011;10032;51.386;12.516;2022-08-21T08:26:02;2.85;;;2.30;;
19747;SDS011;10032;51.386;12.516;2022-08-21T08:28:27;5.10;;;2.65;;
19747;SDS011;10032;51.386;12.516;2022-08-21T08:30:53;6.25;;;2.72;;
19747;SDS011;10032;51.386;12.516;2022-08-21T08:33:19;2.83;;;2.50;;
19747;SDS011;10032;51.386;12.516;2022-08-21T08:35:45;3.78;;;2.45;;
19747;SDS011;10032;51.386;12.516;2022-08-21T08:38:13;2.60;;;2.17;;
19747;SDS011;10032;51.386;12.516;2022-08-21T08:43:13;4.70;;;2.22;;
19747;SDS011;10032;51.386;12.516;2022-08-21T08:45:39;4.47;;;2.00;;
19747;SDS011;10032;51.386;12.516;2022-08-21T08:48:08;2.20;;;1.95;;
19747;SDS011;10032;51.386;12.516;2022-08-21T08:53:08;3.70;;;2.00;;
19747;SDS011;10032;51.386;12.516;2022-08-21T08:55:42;2.65;;;2.13;;
19747;SDS011;10032;51.386;12.516;2022-08-21T08:58:15;3.47;;;2.35;;
19747;SDS011;10032;51.386;12.516;2022-08-21T09:00:45;4.47;;;2.55;;
19747;SDS011;10032;51.386;12.516;2022-08-21T09:03:14;4.32;;;2.30;;
19747;SDS011;10032;51.386;12.516;2022-08-21T09:05:46;6.47;;;2.08;;
19747;SDS011;10032;51.386;12.516;2022-08-21T09:11:04;3.08;;;1.98;;
19747;SDS011;10032;51.386;12.516;2022-08-21T09:22:14;2.83;;;2.05;;
19747;SDS011;10032;51.386;12.516;2022-08-21T09:27:47;3.58;;;2.25;;
19747;SDS011;10032;51.386;12.516;2022-08-21T09:30:13;2.47;;;1.85;;
19747;SDS011;10032;51.386;12.516;2022-08-21T09:32:39;3.30;;;2.17;;
19747;SDS011;10032;51.386;12.516;2022-08-21T09:37:31;3.05;;;2.03;;
19747;SDS011;10032;51.386;12.516;2022-08-21T09:39:59;5.68;;;2.03;;
19747;SDS011;10032;51.386;12.516;2022-08-21T09:42:30;3.17;;;1.73;;
19747;SDS011;10032;51.386;12.516;2022-08-21T09:47:34;3.05;;;1.85;;
19747;SDS011;10032;51.386;12.516;2022-08-21T09:50:10;3.80;;;2.10;;
19747;SDS011;10032;51.386;12.516;2022-08-21T09:52:43;1.77;;;1.67;;
19747;SDS011;10032;51.386;12.516;2022-08-21T09:55:14;4.15;;;2.08;;
19747;SDS011;10032;51.386;12.516;2022-08-21T09:58:04;3.53;;;2.05;;
19747;SDS011;10032;51.386;12.516;2022-08-21T10:00:33;2.55;;;1.90;;
19747;SDS011;10032;51.386;12.516;2022-08-21T10:05:33;2.03;;;1.75;;
19747;SDS011;10032;51.386;12.516;2022-08-21T10:08:00;2.25;;;1.95;;
19747;SDS011;10032;51.386;12.516;2022-08-21T10:10:28;3.50;;;1.77;;
19747;SDS011;10032;51.386;12.516;2022-08-21T10:12:58;4.07;;;2.22;;
19747;SDS011;10032;51.386;12.516;2022-08-21T10:26:26;4.68;;;1.75;;
19747;SDS011;10032;51.386;12.516;2022-08-21T10:40:30;2.42;;;1.63;;
19747;SDS011;10032;51.386;12.516;2022-08-21T10:45:58;2.42;;;1.90;;
19747;SDS011;10032;51.386;12.516;2022-08-21T10:51:16;3.45;;;2.17;;
19747;SDS011;10032;51.386;12.516;2022-08-21T10:54:13;2.78;;;1.73;;
19747;SDS011;10032;51.386;12.516;2022-08-21T10:57:02;3.88;;;1.90;;
19747;SDS011;10032;51.386;12.516;2022-08-21T10:59:44;3.22;;;1.75;;
19747;SDS011;10032;51.386;12.516;2022-08-21T11:02:19;2.70;;;1.60;;
19747;SDS011;10032;51.386;12.516;2022-08-21T11:05:14;4.43;;;2.00;;
19747;SDS011;10032;51.386;12.516;2022-08-21T11:07:53;5.00;;;2.08;;
19747;SDS011;10032;51.386;12.516;2022-08-21T11:10:24;3.70;;;2.03;;
19747;SDS011;10032;51.386;12.516;2022-08-21T11:12:54;5.95;;;2.15;;
19747;SDS011;10032;51.386;12.516;2022-08-21T11:15:28;2.45;;;1.70;;
19747;SDS011;10032;51.386;12.516;2022-08-21T11:18:26;3.10;;;1.67;;
19747;SDS011;10032;51.386;12.516;2022-08-21T11:23:46;2.05;;;1.80;;
19747;SDS011;10032;51.386;12.516;2022-08-21T11:26:19;6.13;;;1.92;;
19747;SDS011;10032;51.386;12.516;2022-08-21T11:29:02;2.30;;;1.63;;
19747;SDS011;10032;51.386;12.516;2022-08-21T11:37:41;3.55;;;1.95;;
19747;SDS011;10032;51.386;12.516;2022-08-21T11:46:06;6.25;;;2.05;;
19747;SDS011;10032;51.386;12.516;2022-08-21T11:48:52;2.58;;;1.35;;
19747;SDS011;10032;51.386;12.516;2022-08-21T11:51:51;6.70;;;1.92;;
19747;SDS011;10032;51.386;12.516;2022-08-21T11:57:03;4.03;;;2.22;;
19747;SDS011;10032;51.386;12.516;2022-08-21T12:02:09;2.50;;;1.58;;
19747;SDS011;10032;51.386;12.516;2022-08-21T12:04:44;4.60;;;1.65;;
19747;SDS011;10032;51.386;12.516;2022-08-21T12:07:16;1.95;;;1.50;;
19747;SDS011;10032;51.386;12.516;2022-08-21T12:09:54;2.85;;;1.98;;
19747;SDS011;10032;51.386;12.516;2022-08-21T12:15:03;2.50;;;1.80;;
19747;SDS011;10032;51.386;12.516;2022-08-21T12:17:50;3.30;;;1.75;;
19747;SDS011;10032;51.386;12.516;2022-08-21T12:23:31;1.95;;;1.67;;
19747;SDS011;10032;51.386;12.516;2022-08-21T12:28:27;2.33;;;1.50;;
19747;SDS011;10032;51.386;12.516;2022-08-21T12:30:53;5.00;;;1.70;;
19747;SDS011;10032;51.386;12.516;2022-08-21T12:33:32;5.70;;;1.88;;
19747;SDS011;10032;51.386;12.516;2022-08-21T12:36:12;2.67;;;1.38;;
19747;SDS011;10032;51.386;12.516;2022-08-21T12:38:56;3.05;;;1.83;;
19747;SDS011;10032;51.386;12.516;2022-08-21T12:41:32;3.47;;;1.85;;
19747;SDS011;10032;51.386;12.516;2022-08-21T12:44:04;3.22;;;1.40;;
19747;SDS011;10032;51.386;12.516;2022-08-21T12:46:35;2.72;;;1.80;;
19747;SDS011;10032;51.386;12.516;2022-08-21T12:52:13;2.25;;;1.40;;
19747;SDS011;10032;51.386;12.516;2022-08-21T12:54:45;2.55;;;1.73;;
19747;SDS011;10032;51.386;12.516;2022-08-21T12:57:21;2.90;;;1.48;;
19747;SDS011;10032;51.386;12.516;2022-08-21T12:59:52;2.78;;;1.80;;
19747;SDS011;10032;51.386;12.516;2022-08-21T13:02:20;1.75;;;1.33;;
19747;SDS011;10032;51.386;12.516;2022-08-21T13:04:50;3.58;;;1.60;;
19747;SDS011;10032;51.386;12.516;2022-08-21T13:07:20;3.58;;;1.40;;
19747;SDS011;10032;51.386;12.516;2022-08-21T13:09:54;3.58;;;1.52;;
19747;SDS011;10032;51.386;12.516;2022-08-21T13:12:23;3.33;;;1.98;;
19747;SDS011;10032;51.386;12.516;2022-08-21T13:14:50;2.72;;;2.00;;
19747;SDS011;10032;51.386;12.516;2022-08-21T13:17:18;4.70;;;1.73;;
19747;SDS011;10032;51.386;12.516;2022-08-21T13:22:21;2.65;;;1.77;;
19747;SDS011;10032;51.386;12.516;2022-08-21T13:24:47;7.55;;;1.77;;
19747;SDS011;10032;51.386;12.516;2022-08-21T13:29:47;1.60;;;1.50;;
19747;SDS011;10032;51.386;12.516;2022-08-21T13:32:18;2.38;;;1.70;;
19747;SDS011;10032;51.386;12.516;2022-08-21T13:34:48;2.95;;;1.98;;
19747;SDS011;10032;51.386;12.516;2022-08-21T13:37:13;2.20;;;1.92;;
19747;SDS011;10032;51.386;12.516;2022-08-21T13:39:39;4.03;;;2.08;;
19747;SDS011;10032;51.386;12.516;2022-08-21T13:42:08;3.53;;;1.90;;
19747;SDS011;10032;51.386;12.516;2022-08-21T13:44:40;3.45;;;1.95;;
19747;SDS011;10032;51.386;12.516;2022-08-21T13:47:10;2.03;;;1.70;;
19747;SDS011;10032;51.386;12.516;2022-08-21T13:49:47;2.80;;;1.60;;
19747;SDS011;10032;51.386;12.516;2022-08-21T13:52:20;4.35;;;2.10;;
19747;SDS011;10032;51.386;12.516;2022-08-21T13:54:58;4.05;;;2.05;;
19747;SDS011;10032;51.386;12.516;2022-08-21T13:57:27;2.13;;;1.75;;
19747;SDS011;10032;51.386;12.516;2022-08-21T14:00:11;4.68;;;2.08;;
19747;SDS011;10032;51.386;12.516;2022-08-21T14:02:41;3.25;;;1.83;;
19747;SDS011;10032;51.386;12.516;2022-08-21T14:05:14;3.50;;;2.35;;
19747;SDS011;10032;51.386;12.516;2022-08-21T14:07:42;2.90;;;1.90;;
19747;SDS011;10032;51.386;12.516;2022-08-21T14:10:19;2.17;;;1.83;;
19747;SDS011;10032;51.386;12.516;2022-08-21T14:12:47;3.10;;;1.85;;
19747;SDS011;10032;51.386;12.516;2022-08-21T14:15:22;2.13;;;1.65;;
19747;SDS011;10032;51.386;12.516;2022-08-21T14:17:50;2.47;;;1.77;;
19747;SDS011;10032;51.386;12.516;2022-08-21T14:20:27;2.60;;;2.03;;
19747;SDS011;10032;51.386;12.516;2022-08-21T14:22:55;2.90;;;1.63;;
19747;SDS011;10032;51.386;12.516;2022-08-21T14:27:56;4.22;;;2.22;;
19747;SDS011;10032;51.386;12.516;2022-08-21T14:32:49;3.08;;;1.60;;
19747;SDS011;10032;51.386;12.516;2022-08-21T14:35:15;2.47;;;1.85;;
19747;SDS011;10032;51.386;12.516;2022-08-21T14:37:43;4.88;;;2.30;;
19747;SDS011;10032;51.386;12.516;2022-08-21T14:40:10;4.32;;;1.92;;
19747;SDS011;10032;51.386;12.516;2022-08-21T14:42:36;1.70;;;1.60;;
19747;SDS011;10032;51.386;12.516;2022-08-21T14:45:05;2.17;;;1.90;;
19747;SDS011;10032;51.386;12.516;2022-08-21T14:47:38;3.58;;;1.63;;
19747;SDS011;10032;51.386;12.516;2022-08-21T14:50:03;2.03;;;1.83;;
19747;SDS011;10032;51.386;12.516;2022-08-21T14:52:29;3.33;;;2.22;;
19747;SDS011;10032;51.386;12.516;2022-08-21T14:54:54;5.07;;;2.10;;
19747;SDS011;10032;51.386;12.516;2022-08-21T14:57:20;1.70;;;1.58;;
19747;SDS011;10032;51.386;12.516;2022-08-21T14:59:45;5.25;;;2.15;;
19747;SDS011;10032;51.386;12.516;2022-08-21T15:02:11;2.28;;;1.70;;
19747;SDS011;10032;51.386;12.516;2022-08-21T15:04:36;2.35;;;1.92;;
19747;SDS011;10032;51.386;12.516;2022-08-21T15:07:02;3.90;;;1.95;;
19747;SDS011;10032;51.386;12.516;2022-08-21T15:09:28;3.40;;;1.80;;
19747;SDS011;10032;51.386;12.516;2022-08-21T15:11:55;2.67;;;1.60;;
19747;SDS011;10032;51.386;12.516;2022-08-21T15:14:26;3.65;;;2.22;;
19747;SDS011;10032;51.386;12.516;2022-08-21T15:16:53;3.65;;;1.83;;
19747;SDS011;10032;51.386;12.516;2022-08-21T15:19:19;3.75;;;1.90;;
19747;SDS011;10032;51.386;12.516;2022-08-21T15:21:44;5.05;;;2.13;;
19747;SDS011;10032;51.386;12.516;2022-08-21T15:24:10;1.85;;;1.70;;
19747;SDS011;10032;51.386;12.516;2022-08-21T15:26:35;2.85;;;1.70;;
19747;SDS011;10032;51.386;12.516;2022-08-21T15:29:01;2.30;;;2.05;;
19747;SDS011;10032;51.386;12.516;2022-08-21T15:31:28;3.35;;;2.03;;
19747;SDS011;10032;51.386;12.516;2022-08-21T15:33:54;2.67;;;1.73;;
19747;SDS011;10032;51.386;12.516;2022-08-21T15:36:20;3.55;;;1.98;;
19747;SDS011;10032;51.386;12.516;2022-08-21T15:38:45;2.92;;;2.03;;
19747;SDS011;10032;51.386;12.516;2022-08-21T15:41:11;4.60;;;1.98;;
19747;SDS011;10032;51.386;12.516;2022-08-21T15:43:42;3.15;;;1.80;;
19747;SDS011;10032;51.386;12.516;2022-08-21T15:46:12;4.32;;;1.92;;
19747;SDS011;10032;51.386;12.516;2022-08-21T15:48:39;2.30;;;1.73;;
19747;SDS011;10032;51.386;12.516;2022-08-21T15:51:04;3.42;;;1.90;;
19747;SDS011;10032;51.386;12.516;2022-08-21T15:53:30;3.75;;;2.35;;
19747;SDS011;10032;51.386;12.516;2022-08-21T15:56:00;6.95;;;1.77;;
19747;SDS011;10032;51.386;12.516;2022-08-21T15:58:27;3.35;;;2.00;;
19747;SDS011;10032;51.386;12.516;2022-08-21T16:00:52;2.80;;;2.25;;
19747;SDS011;10032;51.386;12.516;2022-08-21T16:03:18;3.72;;;1.92;;
19747;SDS011;10032;51.386;12.516;2022-08-21T16:05:46;2.67;;;1.90;;
19747;SDS011;10032;51.386;12.516;2022-08-21T16:08:18;3.10;;;1.73;;
19747;SDS011;10032;51.386;12.516;2022-08-21T16:10:44;5.55;;;1.92;;
19747;SDS011;10032;51.386;12.516;2022-08-21T16:13:20;4.10;;;1.77;;
19747;SDS011;10032;51.386;12.516;2022-08-21T16:15:50;2.83;;;1.85;;
19747;SDS011;10032;51.386;12.516;2022-08-21T16:18:17;3.45;;;1.77;;